sensor_id;sensor_type;location;lat;lon;timestamp;P1;durP1;ratioP1;P2;durP2;ratioP2
13641;SDS011;6894;52.196;9.904;2022-07-23T00:00:05;8.43;;;6.03;;
13641;SDS011;6894;52.196;9.904;2022-07-23T00:02:33;10.97;;;6.47;;
13641;SDS011;6894;52.196;9.904;2022-07-23T00:05:00;5.97;;;5.27;;
13641;SDS011;6894;52.196;9.904;2022-07-23T00:07:28;8.77;;;6.30;;
13641;SDS011;6894;52.196;9.904;2022-07-23T00:09:56;6.80;;;6.13;;
13641;SDS011;6894;52.196;9.904;2022-07-23T00:12:23;9.93;;;5.60;;
13641;SDS011;6894;52.196;9.904;2022-07-23T00:14:49;7.83;;;5.90;;
13641;SDS011;6894;52.196;9.904;2022-07-23T00:17:16;7.27;;;6.37;;
13641;SDS011;6894;52.196;9.904;2022-07-23T00:19:43;6.30;;;5.67;;
13641;SDS011;6894;52.196;9.904;2022-07-23T00:22:10;8.37;;;6.63;;
13641;SDS011;6894;52.196;9.904;2022-07-23T00:24:36;10.20;;;6.47;;
13641;SDS011;6894;52.196;9.904;2022-07-23T00:27:05;6.90;;;6.20;;
13641;SDS011;6894;52.196;9.904;2022-07-23T00:29:31;7.37;;;6.60;;
13641;SDS011;6894;52.196;9.904;2022-07-23T00:31:58;6.90;;;5.93;;
13641;SDS011;6894;52.196;9.904;2022-07-23T00:34:25;7.23;;;5.83;;
13641;SDS011;6894;52.196;9.904;2022-07-23T00:36:52;6.80;;;6.00;;
13641;SDS011;6894;52.196;9.904;2022-07-23T00:39:19;7.33;;;6.40;;
13641;SDS011;6894;52.196;9.904;2022-07-23T00:41:46;6.70;;;6.00;;
13641;SDS011;6894;52.196;9.904;2022-07-23T00:44:18;6.80;;;6.13;;
13641;SDS011;6894;52.196;9.904;2022-07-23T00:46:46;9.07;;;7.03;;
13641;SDS011;6894;52.196;9.904;2022-07-23T00:49:14;6.47;;;5.87;;
13641;SDS011;6894;52.196;9.904;2022-07-23T00:51:41;8.37;;;6.83;;
13641;SDS011;6894;52.196;9.904;2022-07-23T00:54:09;7.80;;;6.43;;
13641;SDS011;6894;52.196;9.904;2022-07-23T00:56:36;8.50;;;6.40;;
13641;SDS011;6894;52.196;9.904;2022-07-23T00:59:03;9.80;;;7.13;;
13641;SDS011;6894;52.196;9.904;2022-07-23T01:01:32;6.47;;;5.73;;
13641;SDS011;6894;52.196;9.904;2022-07-23T01:03:59;7.47;;;5.03;;
13641;SDS011;6894;52.196;9.904;2022-07-23T01:06:26;6.80;;;5.33;;
13641;SDS011;6894;52.196;9.904;2022-07-23T01:08:53;9.40;;;6.13;;
13641;SDS011;6894;52.196;9.904;2022-07-23T01:11:21;9.27;;;6.60;;
13641;SDS011;6894;52.196;9.904;2022-07-23T01:13:49;8.47;;;7.00;;
13641;SDS011;6894;52.196;9.904;2022-07-23T01:16:16;8.17;;;6.50;;
13641;SDS011;6894;52.196;9.904;2022-07-23T01:18:44;7.10;;;6.07;;
13641;SDS011;6894;52.196;9.904;2022-07-23T01:21:11;8.23;;;6.13;;
13641;SDS011;6894;52.196;9.904;2022-07-23T01:23:40;7.00;;;6.30;;
13641;SDS011;6894;52.196;9.904;2022-07-23T01:26:07;7.33;;;6.47;;
13641;SDS011;6894;52.196;9.904;2022-07-23T01:28:34;6.57;;;5.63;;
13641;SDS011;6894;52.196;9.904;2022-07-23T01:31:00;6.03;;;5.43;;
13641;SDS011;6894;52.196;9.904;2022-07-23T01:33:27;5.93;;;5.20;;
13641;SDS011;6894;52.196;9.904;2022-07-23T01:35:54;8.40;;;6.03;;
13641;SDS011;6894;52.196;9.904;2022-07-23T01:38:21;8.07;;;5.80;;
13641;SDS011;6894;52.196;9.904;2022-07-23T01:40:49;8.40;;;5.33;;
13641;SDS011;6894;52.196;9.904;2022-07-23T01:43:16;7.10;;;5.90;;
13641;SDS011;6894;52.196;9.904;2022-07-23T01:45:42;6.93;;;5.80;;
13641;SDS011;6894;52.196;9.904;2022-07-23T01:48:09;7.57;;;5.93;;
13641;SDS011;6894;52.196;9.904;2022-07-23T01:50:36;7.53;;;6.63;;
13641;SDS011;6894;52.196;9.904;2022-07-23T01:53:03;9.80;;;6.57;;
13641;SDS011;6894;52.196;9.904;2022-07-23T01:55:30;6.97;;;6.10;;
13641;SDS011;6894;52.196;9.904;2022-07-23T01:57:58;7.37;;;6.03;;
13641;SDS011;6894;52.196;9.904;2022-07-23T02:00:24;9.80;;;7.00;;
13641;SDS011;6894;52.196;9.904;2022-07-23T02:02:51;7.80;;;6.80;;
13641;SDS011;6894;52.196;9.904;2022-07-23T02:05:18;9.43;;;7.00;;
13641;SDS011;6894;52.196;9.904;2022-07-23T02:07:45;7.83;;;7.13;;
13641;SDS011;6894;52.196;9.904;2022-07-23T02:10:11;8.27;;;7.40;;
13641;SDS011;6894;52.196;9.904;2022-07-23T02:12:38;8.57;;;7.80;;
13641;SDS011;6894;52.196;9.904;2022-07-23T02:15:07;9.90;;;8.17;;
13641;SDS011;6894;52.196;9.904;2022-07-23T02:17:34;12.93;;;8.40;;
13641;SDS011;6894;52.196;9.904;2022-07-23T02:20:01;13.43;;;9.23;;
13641;SDS011;6894;52.196;9.904;2022-07-23T02:22:28;10.13;;;9.03;;
13641;SDS011;6894;52.196;9.904;2022-07-23T02:24:55;11.37;;;10.23;;
13641;SDS011;6894;52.196;9.904;2022-07-23T02:27:22;12.23;;;10.57;;
13641;SDS011;6894;52.196;9.904;2022-07-23T02:29:48;14.10;;;10.93;;
13641;SDS011;6894;52.196;9.904;2022-07-23T02:32:17;11.17;;;9.80;;
13641;SDS011;6894;52.196;9.904;2022-07-23T02:34:43;11.90;;;8.90;;
13641;SDS011;6894;52.196;9.904;2022-07-23T02:37:10;11.43;;;9.87;;
13641;SDS011;6894;52.196;9.904;2022-07-23T02:39:37;11.43;;;9.10;;
13641;SDS011;6894;52.196;9.904;2022-07-23T02:42:04;10.20;;;9.23;;
13641;SDS011;6894;52.196;9.904;2022-07-23T02:44:31;11.73;;;9.53;;
13641;SDS011;6894;52.196;9.904;2022-07-23T02:46:58;9.07;;;8.17;;
13641;SDS011;6894;52.196;9.904;2022-07-23T02:49:26;9.83;;;8.47;;
13641;SDS011;6894;52.196;9.904;2022-07-23T02:51:52;9.93;;;8.97;;
13641;SDS011;6894;52.196;9.904;2022-07-23T02:54:19;13.03;;;9.17;;
13641;SDS011;6894;52.196;9.904;2022-07-23T02:56:46;9.33;;;8.07;;
13641;SDS011;6894;52.196;9.904;2022-07-23T02:59:15;8.27;;;7.57;;
13641;SDS011;6894;52.196;9.904;2022-07-23T03:01:42;9.07;;;8.17;;
13641;SDS011;6894;52.196;9.904;2022-07-23T03:04:09;9.63;;;8.20;;
13641;SDS011;6894;52.196;9.904;2022-07-23T03:06:37;10.63;;;7.37;;
13641;SDS011;6894;52.196;9.904;2022-07-23T03:09:05;9.67;;;8.43;;
13641;SDS011;6894;52.196;9.904;2022-07-23T03:11:31;9.77;;;7.67;;
13641;SDS011;6894;52.196;9.904;2022-07-23T03:13:58;8.07;;;7.27;;
13641;SDS011;6894;52.196;9.904;2022-07-23T03:16:25;10.20;;;6.90;;
13641;SDS011;6894;52.196;9.904;2022-07-23T03:18:52;10.37;;;7.03;;
13641;SDS011;6894;52.196;9.904;2022-07-23T03:21:18;7.37;;;6.23;;
13641;SDS011;6894;52.196;9.904;2022-07-23T03:23:46;7.47;;;6.73;;
13641;SDS011;6894;52.196;9.904;2022-07-23T03:26:13;7.03;;;6.33;;
13641;SDS011;6894;52.196;9.904;2022-07-23T03:28:40;7.43;;;6.60;;
13641;SDS011;6894;52.196;9.904;2022-07-23T03:31:07;9.00;;;5.67;;
13641;SDS011;6894;52.196;9.904;2022-07-23T03:33:34;15.33;;;6.40;;
13641;SDS011;6894;52.196;9.904;2022-07-23T03:36:00;7.77;;;6.40;;
13641;SDS011;6894;52.196;9.904;2022-07-23T03:38:27;7.43;;;6.70;;
13641;SDS011;6894;52.196;9.904;2022-07-23T03:40:55;6.97;;;6.27;;
13641;SDS011;6894;52.196;9.904;2022-07-23T03:43:22;7.63;;;6.73;;
13641;SDS011;6894;52.196;9.904;2022-07-23T03:45:50;7.90;;;6.37;;
13641;SDS011;6894;52.196;9.904;2022-07-23T03:48:17;8.60;;;6.60;;
13641;SDS011;6894;52.196;9.904;2022-07-23T03:50:44;7.77;;;6.93;;
13641;SDS011;6894;52.196;9.904;2022-07-23T03:53:11;6.50;;;5.77;;
13641;SDS011;6894;52.196;9.904;2022-07-23T03:55:37;8.73;;;6.43;;
13641;SDS011;6894;52.196;9.904;2022-07-23T03:58:05;7.33;;;6.37;;
13641;SDS011;6894;52.196;9.904;2022-07-23T04:00:32;10.00;;;7.13;;
13641;SDS011;6894;52.196;9.904;2022-07-23T04:02:59;7.63;;;6.93;;
13641;SDS011;6894;52.196;9.904;2022-07-23T04:05:26;8.67;;;6.30;;
13641;SDS011;6894;52.196;9.904;2022-07-23T04:07:52;7.50;;;6.30;;
13641;SDS011;6894;52.196;9.904;2022-07-23T04:10:19;6.83;;;6.23;;
13641;SDS011;6894;52.196;9.904;2022-07-23T04:12:46;7.87;;;6.23;;
13641;SDS011;6894;52.196;9.904;2022-07-23T04:15:14;7.73;;;6.60;;
13641;SDS011;6894;52.196;9.904;2022-07-23T04:17:41;6.03;;;5.43;;
13641;SDS011;6894;52.196;9.904;2022-07-23T04:20:09;7.97;;;6.20;;
13641;SDS011;6894;52.196;9.904;2022-07-23T04:22:36;6.37;;;5.77;;
13641;SDS011;6894;52.196;9.904;2022-07-23T04:25:03;8.03;;;6.03;;
13641;SDS011;6894;52.196;9.904;2022-07-23T04:27:31;6.33;;;5.47;;
13641;SDS011;6894;52.196;9.904;2022-07-23T04:29:58;11.97;;;6.70;;
13641;SDS011;6894;52.196;9.904;2022-07-23T04:32:26;7.53;;;5.77;;
13641;SDS011;6894;52.196;9.904;2022-07-23T04:34:53;7.30;;;6.03;;
13641;SDS011;6894;52.196;9.904;2022-07-23T04:37:20;8.83;;;6.40;;
13641;SDS011;6894;52.196;9.904;2022-07-23T04:39:46;6.13;;;5.43;;
13641;SDS011;6894;52.196;9.904;2022-07-23T04:42:13;6.97;;;5.67;;
13641;SDS011;6894;52.196;9.904;2022-07-23T04:44:40;6.30;;;5.70;;
13641;SDS011;6894;52.196;9.904;2022-07-23T04:47:07;10.20;;;7.03;;
13641;SDS011;6894;52.196;9.904;2022-07-23T04:49:35;7.00;;;6.13;;
13641;SDS011;6894;52.196;9.904;2022-07-23T04:52:02;8.70;;;7.67;;
13641;SDS011;6894;52.196;9.904;2022-07-23T04:54:29;8.87;;;6.90;;
13641;SDS011;6894;52.196;9.904;2022-07-23T04:56:56;7.53;;;6.70;;
13641;SDS011;6894;52.196;9.904;2022-07-23T04:59:22;7.13;;;6.47;;
13641;SDS011;6894;52.196;9.904;2022-07-23T05:01:49;8.10;;;7.30;;
13641;SDS011;6894;52.196;9.904;2022-07-23T05:04:16;8.37;;;7.43;;
13641;SDS011;6894;52.196;9.904;2022-07-23T05:06:44;8.50;;;7.17;;
13641;SDS011;6894;52.196;9.904;2022-07-23T05:09:11;9.60;;;8.73;;
13641;SDS011;6894;52.196;9.904;2022-07-23T05:11:37;7.53;;;6.73;;
13641;SDS011;6894;52.196;9.904;2022-07-23T05:14:04;10.50;;;7.60;;
13641;SDS011;6894;52.196;9.904;2022-07-23T05:16:31;8.70;;;7.33;;
13641;SDS011;6894;52.196;9.904;2022-07-23T05:18:58;8.93;;;7.47;;
13641;SDS011;6894;52.196;9.904;2022-07-23T05:21:25;8.67;;;7.77;;
13641;SDS011;6894;52.196;9.904;2022-07-23T05:23:53;10.17;;;7.83;;
13641;SDS011;6894;52.196;9.904;2022-07-23T05:26:19;8.50;;;7.60;;
13641;SDS011;6894;52.196;9.904;2022-07-23T05:28:46;8.37;;;6.93;;
13641;SDS011;6894;52.196;9.904;2022-07-23T05:31:13;8.90;;;7.93;;
13641;SDS011;6894;52.196;9.904;2022-07-23T05:33:40;9.80;;;7.73;;
13641;SDS011;6894;52.196;9.904;2022-07-23T05:36:07;8.37;;;7.50;;
13641;SDS011;6894;52.196;9.904;2022-07-23T05:38:34;8.50;;;7.73;;
13641;SDS011;6894;52.196;9.904;2022-07-23T05:41:02;11.37;;;8.53;;
13641;SDS011;6894;52.196;9.904;2022-07-23T05:43:29;9.00;;;8.00;;
13641;SDS011;6894;52.196;9.904;2022-07-23T05:45:56;10.87;;;8.13;;
13641;SDS011;6894;52.196;9.904;2022-07-23T05:48:22;8.73;;;7.80;;
13641;SDS011;6894;52.196;9.904;2022-07-23T05:50:49;9.53;;;7.57;;
13641;SDS011;6894;52.196;9.904;2022-07-23T05:53:16;10.67;;;8.23;;
13641;SDS011;6894;52.196;9.904;2022-07-23T05:55:43;8.47;;;7.40;;
13641;SDS011;6894;52.196;9.904;2022-07-23T05:58:11;9.20;;;7.97;;
13641;SDS011;6894;52.196;9.904;2022-07-23T06:00:38;9.47;;;7.47;;
13641;SDS011;6894;52.196;9.904;2022-07-23T06:03:04;8.83;;;8.00;;
13641;SDS011;6894;52.196;9.904;2022-07-23T06:05:31;8.70;;;7.80;;
13641;SDS011;6894;52.196;9.904;2022-07-23T06:07:58;8.03;;;7.23;;
13641;SDS011;6894;52.196;9.904;2022-07-23T06:10:25;8.03;;;7.27;;
13641;SDS011;6894;52.196;9.904;2022-07-23T06:12:52;9.13;;;7.23;;
13641;SDS011;6894;52.196;9.904;2022-07-23T06:15:20;8.23;;;6.97;;
13641;SDS011;6894;52.196;9.904;2022-07-23T06:17:47;7.90;;;7.07;;
13641;SDS011;6894;52.196;9.904;2022-07-23T06:20:14;7.33;;;6.60;;
13641;SDS011;6894;52.196;9.904;2022-07-23T06:22:40;7.87;;;6.53;;
13641;SDS011;6894;52.196;9.904;2022-07-23T06:25:07;6.10;;;5.17;;
13641;SDS011;6894;52.196;9.904;2022-07-23T06:27:35;6.53;;;5.03;;
13641;SDS011;6894;52.196;9.904;2022-07-23T06:30:01;4.93;;;4.40;;
13641;SDS011;6894;52.196;9.904;2022-07-23T06:32:30;7.93;;;4.70;;
13641;SDS011;6894;52.196;9.904;2022-07-23T06:34:57;6.67;;;4.70;;
13641;SDS011;6894;52.196;9.904;2022-07-23T06:37:23;5.57;;;3.97;;
13641;SDS011;6894;52.196;9.904;2022-07-23T06:39:50;4.97;;;3.43;;
13641;SDS011;6894;52.196;9.904;2022-07-23T06:42:17;5.73;;;4.10;;
13641;SDS011;6894;52.196;9.904;2022-07-23T06:44:44;5.77;;;4.10;;
13641;SDS011;6894;52.196;9.904;2022-07-23T06:47:10;5.83;;;3.70;;
13641;SDS011;6894;52.196;9.904;2022-07-23T06:49:39;4.67;;;3.63;;
13641;SDS011;6894;52.196;9.904;2022-07-23T06:52:06;5.50;;;3.93;;
13641;SDS011;6894;52.196;9.904;2022-07-23T06:54:32;4.43;;;3.73;;
13641;SDS011;6894;52.196;9.904;2022-07-23T06:56:59;7.10;;;4.00;;
13641;SDS011;6894;52.196;9.904;2022-07-23T06:59:26;4.23;;;3.83;;
13641;SDS011;6894;52.196;9.904;2022-07-23T07:01:53;6.27;;;4.37;;
13641;SDS011;6894;52.196;9.904;2022-07-23T07:04:20;5.40;;;4.17;;
13641;SDS011;6894;52.196;9.904;2022-07-23T07:06:48;5.30;;;3.97;;
13641;SDS011;6894;52.196;9.904;2022-07-23T07:09:15;4.73;;;3.87;;
13641;SDS011;6894;52.196;9.904;2022-07-23T07:11:43;5.03;;;3.77;;
13641;SDS011;6894;52.196;9.904;2022-07-23T07:14:09;4.70;;;3.53;;
13641;SDS011;6894;52.196;9.904;2022-07-23T07:16:36;4.83;;;3.63;;
13641;SDS011;6894;52.196;9.904;2022-07-23T07:19:03;4.00;;;3.53;;
13641;SDS011;6894;52.196;9.904;2022-07-23T07:21:30;4.93;;;3.57;;
13641;SDS011;6894;52.196;9.904;2022-07-23T07:23:58;6.40;;;3.90;;
13641;SDS011;6894;52.196;9.904;2022-07-23T07:26:25;7.03;;;4.67;;
13641;SDS011;6894;52.196;9.904;2022-07-23T07:28:52;6.03;;;4.03;;
13641;SDS011;6894;52.196;9.904;2022-07-23T07:31:19;5.90;;;3.67;;
13641;SDS011;6894;52.196;9.904;2022-07-23T07:33:45;6.07;;;3.87;;
13641;SDS011;6894;52.196;9.904;2022-07-23T07:36:12;5.43;;;3.70;;
13641;SDS011;6894;52.196;9.904;2022-07-23T07:38:39;8.70;;;3.57;;
13641;SDS011;6894;52.196;9.904;2022-07-23T07:41:07;4.23;;;3.27;;
13641;SDS011;6894;52.196;9.904;2022-07-23T07:43:35;4.03;;;3.70;;
13641;SDS011;6894;52.196;9.904;2022-07-23T07:46:02;4.73;;;3.60;;
13641;SDS011;6894;52.196;9.904;2022-07-23T07:48:29;5.00;;;3.67;;
13641;SDS011;6894;52.196;9.904;2022-07-23T07:50:55;4.60;;;3.43;;
13641;SDS011;6894;52.196;9.904;2022-07-23T07:53:22;5.00;;;3.20;;
13641;SDS011;6894;52.196;9.904;2022-07-23T07:55:49;5.27;;;2.97;;
13641;SDS011;6894;52.196;9.904;2022-07-23T07:58:17;3.60;;;2.57;;
13641;SDS011;6894;52.196;9.904;2022-07-23T08:00:44;4.07;;;2.33;;
13641;SDS011;6894;52.196;9.904;2022-07-23T08:03:10;2.63;;;2.40;;
13641;SDS011;6894;52.196;9.904;2022-07-23T08:05:37;3.20;;;2.60;;
13641;SDS011;6894;52.196;9.904;2022-07-23T08:08:04;7.10;;;3.00;;
13641;SDS011;6894;52.196;9.904;2022-07-23T08:10:31;9.87;;;9.07;;
13641;SDS011;6894;52.196;9.904;2022-07-23T08:12:58;3.97;;;2.50;;
13641;SDS011;6894;52.196;9.904;2022-07-23T08:15:27;3.97;;;2.07;;
13641;SDS011;6894;52.196;9.904;2022-07-23T08:17:55;3.60;;;2.83;;
13641;SDS011;6894;52.196;9.904;2022-07-23T08:20:22;2.97;;;2.53;;
13641;SDS011;6894;52.196;9.904;2022-07-23T08:22:50;3.13;;;2.50;;
13641;SDS011;6894;52.196;9.904;2022-07-23T08:25:20;3.40;;;3.10;;
13641;SDS011;6894;52.196;9.904;2022-07-23T08:27:48;3.27;;;2.90;;
13641;SDS011;6894;52.196;9.904;2022-07-23T08:30:15;3.87;;;2.93;;
13641;SDS011;6894;52.196;9.904;2022-07-23T08:32:54;5.03;;;3.77;;
13641;SDS011;6894;52.196;9.904;2022-07-23T08:35:23;4.70;;;2.87;;
13641;SDS011;6894;52.196;9.904;2022-07-23T08:37:51;4.70;;;2.67;;
13641;SDS011;6894;52.196;9.904;2022-07-23T08:40:18;4.80;;;2.80;;
13641;SDS011;6894;52.196;9.904;2022-07-23T08:42:47;3.80;;;2.37;;
13641;SDS011;6894;52.196;9.904;2022-07-23T08:45:16;2.90;;;2.20;;
13641;SDS011;6894;52.196;9.904;2022-07-23T08:47:45;3.30;;;2.10;;
13641;SDS011;6894;52.196;9.904;2022-07-23T08:50:16;2.87;;;2.47;;
13641;SDS011;6894;52.196;9.904;2022-07-23T08:52:44;3.83;;;2.37;;
13641;SDS011;6894;52.196;9.904;2022-07-23T08:55:10;3.43;;;2.40;;
13641;SDS011;6894;52.196;9.904;2022-07-23T08:57:38;3.07;;;2.00;;
13641;SDS011;6894;52.196;9.904;2022-07-23T09:00:05;4.80;;;2.50;;
13641;SDS011;6894;52.196;9.904;2022-07-23T09:02:38;3.60;;;2.37;;
13641;SDS011;6894;52.196;9.904;2022-07-23T09:05:06;3.33;;;2.73;;
13641;SDS011;6894;52.196;9.904;2022-07-23T09:07:34;4.50;;;1.97;;
13641;SDS011;6894;52.196;9.904;2022-07-23T09:10:05;3.67;;;2.00;;
13641;SDS011;6894;52.196;9.904;2022-07-23T09:12:34;2.33;;;1.90;;
13641;SDS011;6894;52.196;9.904;2022-07-23T09:15:06;6.10;;;2.00;;
13641;SDS011;6894;52.196;9.904;2022-07-23T09:17:37;5.63;;;1.63;;
13641;SDS011;6894;52.196;9.904;2022-07-23T09:20:09;3.73;;;1.97;;
13641;SDS011;6894;52.196;9.904;2022-07-23T09:22:38;2.40;;;1.80;;
13641;SDS011;6894;52.196;9.904;2022-07-23T09:25:10;3.20;;;1.83;;
13641;SDS011;6894;52.196;9.904;2022-07-23T09:27:49;1.97;;;1.40;;
13641;SDS011;6894;52.196;9.904;2022-07-23T09:30:18;1.93;;;1.50;;
13641;SDS011;6894;52.196;9.904;2022-07-23T09:35:47;4.00;;;2.20;;
13641;SDS011;6894;52.196;9.904;2022-07-23T09:38:17;4.27;;;2.07;;
13641;SDS011;6894;52.196;9.904;2022-07-23T09:40:45;4.23;;;1.97;;
13641;SDS011;6894;52.196;9.904;2022-07-23T09:43:13;4.33;;;1.80;;
13641;SDS011;6894;52.196;9.904;2022-07-23T09:45:53;2.30;;;1.70;;
13641;SDS011;6894;52.196;9.904;2022-07-23T09:48:21;2.17;;;1.73;;
13641;SDS011;6894;52.196;9.904;2022-07-23T09:50:48;3.50;;;2.07;;
13641;SDS011;6894;52.196;9.904;2022-07-23T09:53:24;3.90;;;1.73;;
13641;SDS011;6894;52.196;9.904;2022-07-23T09:55:51;5.83;;;2.53;;
13641;SDS011;6894;52.196;9.904;2022-07-23T09:58:23;2.70;;;2.10;;
13641;SDS011;6894;52.196;9.904;2022-07-23T10:00:52;2.67;;;1.60;;
13641;SDS011;6894;52.196;9.904;2022-07-23T10:03:19;2.70;;;1.80;;
13641;SDS011;6894;52.196;9.904;2022-07-23T10:05:46;3.20;;;2.10;;
13641;SDS011;6894;52.196;9.904;2022-07-23T10:08:14;2.70;;;2.00;;
13641;SDS011;6894;52.196;9.904;2022-07-23T10:10:46;2.67;;;1.80;;
13641;SDS011;6894;52.196;9.904;2022-07-23T10:13:13;1.70;;;1.60;;
13641;SDS011;6894;52.196;9.904;2022-07-23T10:15:58;2.43;;;1.60;;
13641;SDS011;6894;52.196;9.904;2022-07-23T10:18:30;2.47;;;1.90;;
13641;SDS011;6894;52.196;9.904;2022-07-23T10:20:57;4.13;;;2.10;;
13641;SDS011;6894;52.196;9.904;2022-07-23T10:23:28;2.90;;;1.57;;
13641;SDS011;6894;52.196;9.904;2022-07-23T10:26:03;1.83;;;1.40;;
13641;SDS011;6894;52.196;9.904;2022-07-23T10:28:41;4.20;;;2.00;;
13641;SDS011;6894;52.196;9.904;2022-07-23T10:31:20;2.60;;;1.53;;
13641;SDS011;6894;52.196;9.904;2022-07-23T10:34:00;2.30;;;1.50;;
13641;SDS011;6894;52.196;9.904;2022-07-23T10:36:37;2.55;;;2.30;;
13641;SDS011;6894;52.196;9.904;2022-07-23T10:39:10;2.10;;;1.70;;
13641;SDS011;6894;52.196;9.904;2022-07-23T10:41:42;3.45;;;1.67;;
13641;SDS011;6894;52.196;9.904;2022-07-23T10:44:09;3.40;;;1.53;;
13641;SDS011;6894;52.196;9.904;2022-07-23T10:49:29;3.10;;;1.23;;
13641;SDS011;6894;52.196;9.904;2022-07-23T10:54:48;2.07;;;1.67;;
13641;SDS011;6894;52.196;9.904;2022-07-23T10:57:17;3.50;;;1.30;;
13641;SDS011;6894;52.196;9.904;2022-07-23T11:02:40;2.78;;;1.17;;
13641;SDS011;6894;52.196;9.904;2022-07-23T11:05:10;1.60;;;1.50;;
13641;SDS011;6894;52.196;9.904;2022-07-23T11:10:51;3.03;;;1.40;;
13641;SDS011;6894;52.196;9.904;2022-07-23T11:13:27;7.10;;;1.80;;
13641;SDS011;6894;52.196;9.904;2022-07-23T11:16:11;1.83;;;1.10;;
13641;SDS011;6894;52.196;9.904;2022-07-23T11:21:41;3.97;;;1.42;;
13641;SDS011;6894;52.196;9.904;2022-07-23T11:24:13;3.42;;;1.50;;
13641;SDS011;6894;52.196;9.904;2022-07-23T11:26:46;2.58;;;1.40;;
13641;SDS011;6894;52.196;9.904;2022-07-23T11:29:41;1.58;;;1.05;;
13641;SDS011;6894;52.196;9.904;2022-07-23T11:32:18;3.00;;;1.60;;
13641;SDS011;6894;52.196;9.904;2022-07-23T11:34:50;1.77;;;1.30;;
13641;SDS011;6894;52.196;9.904;2022-07-23T11:37:35;3.87;;;1.50;;
13641;SDS011;6894;52.196;9.904;2022-07-23T11:40:04;1.73;;;1.40;;
13641;SDS011;6894;52.196;9.904;2022-07-23T11:42:34;3.43;;;1.40;;
13641;SDS011;6894;52.196;9.904;2022-07-23T11:45:04;2.25;;;1.17;;
13641;SDS011;6894;52.196;9.904;2022-07-23T11:47:32;1.63;;;1.23;;
13641;SDS011;6894;52.196;9.904;2022-07-23T11:50:00;3.03;;;1.40;;
13641;SDS011;6894;52.196;9.904;2022-07-23T11:52:28;3.13;;;1.30;;
13641;SDS011;6894;52.196;9.904;2022-07-23T11:54:56;3.63;;;1.10;;
13641;SDS011;6894;52.196;9.904;2022-07-23T11:57:25;1.63;;;1.10;;
13641;SDS011;6894;52.196;9.904;2022-07-23T11:59:53;1.85;;;1.45;;
13641;SDS011;6894;52.196;9.904;2022-07-23T12:02:24;2.00;;;1.02;;
13641;SDS011;6894;52.196;9.904;2022-07-23T12:04:51;3.05;;;1.30;;
13641;SDS011;6894;52.196;9.904;2022-07-23T12:07:26;1.75;;;1.00;;
13641;SDS011;6894;52.196;9.904;2022-07-23T12:09:54;1.98;;;0.90;;
13641;SDS011;6894;52.196;9.904;2022-07-23T12:12:22;1.98;;;1.10;;
13641;SDS011;6894;52.196;9.904;2022-07-23T12:14:49;1.67;;;1.15;;
13641;SDS011;6894;52.196;9.904;2022-07-23T12:17:17;2.00;;;1.08;;
13641;SDS011;6894;52.196;9.904;2022-07-23T12:19:45;3.03;;;1.20;;
13641;SDS011;6894;52.196;9.904;2022-07-23T12:22:13;2.53;;;1.20;;
13641;SDS011;6894;52.196;9.904;2022-07-23T12:24:52;2.25;;;1.20;;
13641;SDS011;6894;52.196;9.904;2022-07-23T12:27:20;1.90;;;0.90;;
13641;SDS011;6894;52.196;9.904;2022-07-23T12:29:48;3.20;;;1.13;;
13641;SDS011;6894;52.196;9.904;2022-07-23T12:32:18;2.67;;;1.30;;
13641;SDS011;6894;52.196;9.904;2022-07-23T12:34:49;1.73;;;1.00;;
13641;SDS011;6894;52.196;9.904;2022-07-23T12:37:30;1.70;;;1.10;;
13641;SDS011;6894;52.196;9.904;2022-07-23T12:39:57;1.40;;;1.00;;
13641;SDS011;6894;52.196;9.904;2022-07-23T12:42:24;1.67;;;0.95;;
13641;SDS011;6894;52.196;9.904;2022-07-23T12:47:56;1.75;;;0.90;;
13641;SDS011;6894;52.196;9.904;2022-07-23T12:50:42;1.50;;;1.13;;
13641;SDS011;6894;52.196;9.904;2022-07-23T12:53:12;1.52;;;0.60;;
13641;SDS011;6894;52.196;9.904;2022-07-23T12:55:41;0.90;;;0.90;;
13641;SDS011;6894;52.196;9.904;2022-07-23T12:58:10;1.25;;;0.80;;
13641;SDS011;6894;52.196;9.904;2022-07-23T13:00:58;2.10;;;0.77;;
13641;SDS011;6894;52.196;9.904;2022-07-23T13:03:28;1.17;;;0.70;;
13641;SDS011;6894;52.196;9.904;2022-07-23T13:05:58;1.60;;;0.90;;
13641;SDS011;6894;52.196;9.904;2022-07-23T13:08:26;1.95;;;0.70;;
13641;SDS011;6894;52.196;9.904;2022-07-23T13:10:55;1.73;;;0.90;;
13641;SDS011;6894;52.196;9.904;2022-07-23T13:13:23;2.28;;;1.02;;
13641;SDS011;6894;52.196;9.904;2022-07-23T13:15:51;2.35;;;0.90;;
13641;SDS011;6894;52.196;9.904;2022-07-23T13:18:19;1.85;;;0.90;;
13641;SDS011;6894;52.196;9.904;2022-07-23T13:20:48;3.45;;;0.80;;
13641;SDS011;6894;52.196;9.904;2022-07-23T13:23:16;1.08;;;0.80;;
13641;SDS011;6894;52.196;9.904;2022-07-23T13:25:44;2.08;;;0.63;;
13641;SDS011;6894;52.196;9.904;2022-07-23T13:28:11;3.28;;;1.15;;
13641;SDS011;6894;52.196;9.904;2022-07-23T13:30:38;1.35;;;0.98;;
13641;SDS011;6894;52.196;9.904;2022-07-23T13:33:05;1.65;;;0.77;;
13641;SDS011;6894;52.196;9.904;2022-07-23T13:35:33;1.77;;;0.90;;
13641;SDS011;6894;52.196;9.904;2022-07-23T13:38:00;1.42;;;0.82;;
13641;SDS011;6894;52.196;9.904;2022-07-23T13:40:28;4.07;;;0.85;;
13641;SDS011;6894;52.196;9.904;2022-07-23T13:42:55;0.85;;;0.77;;
13641;SDS011;6894;52.196;9.904;2022-07-23T13:45:22;0.85;;;0.77;;
13641;SDS011;6894;52.196;9.904;2022-07-23T13:47:49;0.70;;;0.65;;
13641;SDS011;6894;52.196;9.904;2022-07-23T13:50:15;1.27;;;0.90;;
13641;SDS011;6894;52.196;9.904;2022-07-23T13:52:42;1.35;;;0.68;;
13641;SDS011;6894;52.196;9.904;2022-07-23T13:55:10;1.83;;;0.77;;
13641;SDS011;6894;52.196;9.904;2022-07-23T13:57:38;1.60;;;0.70;;
13641;SDS011;6894;52.196;9.904;2022-07-23T14:00:06;2.25;;;0.80;;
13641;SDS011;6894;52.196;9.904;2022-07-23T14:02:36;1.63;;;0.60;;
13641;SDS011;6894;52.196;9.904;2022-07-23T14:05:03;0.90;;;0.60;;
13641;SDS011;6894;52.196;9.904;2022-07-23T14:07:31;1.30;;;0.80;;
13641;SDS011;6894;52.196;9.904;2022-07-23T14:09:58;1.83;;;0.60;;
13641;SDS011;6894;52.196;9.904;2022-07-23T14:12:25;1.77;;;0.75;;
13641;SDS011;6894;52.196;9.904;2022-07-23T14:14:53;3.25;;;0.60;;
13641;SDS011;6894;52.196;9.904;2022-07-23T14:17:20;1.55;;;0.57;;
13641;SDS011;6894;52.196;9.904;2022-07-23T14:19:47;1.75;;;0.60;;
13641;SDS011;6894;52.196;9.904;2022-07-23T14:22:14;4.15;;;0.70;;
13641;SDS011;6894;52.196;9.904;2022-07-23T14:24:41;2.13;;;0.70;;
13641;SDS011;6894;52.196;9.904;2022-07-23T14:27:08;3.28;;;0.98;;
13641;SDS011;6894;52.196;9.904;2022-07-23T14:29:35;1.42;;;0.60;;
13641;SDS011;6894;52.196;9.904;2022-07-23T14:32:04;2.28;;;0.70;;
13641;SDS011;6894;52.196;9.904;2022-07-23T14:34:31;1.30;;;0.60;;
13641;SDS011;6894;52.196;9.904;2022-07-23T14:36:58;1.90;;;0.50;;
13641;SDS011;6894;52.196;9.904;2022-07-23T14:39:25;1.40;;;0.65;;
13641;SDS011;6894;52.196;9.904;2022-07-23T14:41:52;1.17;;;0.60;;
13641;SDS011;6894;52.196;9.904;2022-07-23T14:44:19;1.02;;;0.55;;
13641;SDS011;6894;52.196;9.904;2022-07-23T14:46:46;2.13;;;0.77;;
13641;SDS011;6894;52.196;9.904;2022-07-23T14:49:14;1.83;;;0.80;;
13641;SDS011;6894;52.196;9.904;2022-07-23T14:51:41;4.07;;;1.35;;
13641;SDS011;6894;52.196;9.904;2022-07-23T14:54:08;1.58;;;0.60;;
13641;SDS011;6894;52.196;9.904;2022-07-23T14:56:35;1.60;;;0.60;;
13641;SDS011;6894;52.196;9.904;2022-07-23T14:59:02;0.80;;;0.60;;
13641;SDS011;6894;52.196;9.904;2022-07-23T15:01:29;1.77;;;0.57;;
13641;SDS011;6894;52.196;9.904;2022-07-23T15:03:56;1.80;;;0.80;;
13641;SDS011;6894;52.196;9.904;2022-07-23T15:06:24;2.13;;;0.90;;
13641;SDS011;6894;52.196;9.904;2022-07-23T15:08:51;2.03;;;0.70;;
13641;SDS011;6894;52.196;9.904;2022-07-23T15:11:17;1.30;;;0.60;;
13641;SDS011;6894;52.196;9.904;2022-07-23T15:13:44;1.23;;;0.50;;
13641;SDS011;6894;52.196;9.904;2022-07-23T15:16:11;1.05;;;0.60;;
13641;SDS011;6894;52.196;9.904;2022-07-23T15:18:38;0.95;;;0.63;;
13641;SDS011;6894;52.196;9.904;2022-07-23T15:21:05;1.05;;;0.40;;
13641;SDS011;6894;52.196;9.904;2022-07-23T15:23:34;3.13;;;0.50;;
13641;SDS011;6894;52.196;9.904;2022-07-23T15:26:01;2.60;;;0.65;;